Weather reports worldwide

Advertisment
Malaga,Puerto, Spain (8479): temperature & dewpoint: 10.07.2018 18:00:00 - 16.07.2018 18:00:00 (CEST)Malaga,Puerto, Spain (8479): wind speed & gusts: 10.07.2018 18:00:00 - 16.07.2018 18:00:00 (CEST)Malaga,Puerto, Spain (8479): wind direction: 10.07.2018 18:00:00 - 16.07.2018 18:00:00 (CEST)Malaga,Puerto, Spain (8479): reduced air pressure: 10.07.2018 18:00:00 - 16.07.2018 18:00:00 (CEST)Malaga,Puerto, Spain (8479): precipitation: 10.07.2018 18:00:00 - 16.07.2018 18:00:00 (CEST)
Date & Time tt [°C] td [°C] ff [km/h] ff [kn] fx [km/h] fx [kn] dd ppp [hPa] rr [mm]
16.07.2018 18:00:00 - - - - - - - - -
16.07.2018 17:00:00 27,9 12,7 11 6 25 13 E 1013,2 0,0
16.07.2018 16:00:00 27,8 13,0 10 6 31 17 ESE 1013,7 0,0
16.07.2018 15:00:00 27,6 12,8 17 9 40 21 SSW 1014,7 0,0
16.07.2018 14:00:00 31,1 12,0 10 5 30 16 W 1015,0 -
16.07.2018 13:00:00 30,3 12,7 16 8 29 16 W 1015,4 0,0
16.07.2018 12:00:00 29,7 12,6 9 5 26 14 W 1015,8 0,0
16.07.2018 11:00:00 26,8 13,9 9 5 35 19 W 1016,2 0,0
16.07.2018 10:00:00 - - 15 8 27 15 WSW - 0,0
16.07.2018 09:00:00 23,1 13,9 14 8 31 17 WSW 1016,0 0,0
16.07.2018 08:00:00 22,6 13,4 12 7 29 16 W 1016,3 -
16.07.2018 07:00:00 22,5 13,3 16 9 36 19 WNW 1016,2 0,0
16.07.2018 06:00:00 22,6 13,4 18 10 30 16 W 1016,0 0,0
16.07.2018 05:00:00 22,9 13,1 13 7 28 15 WNW 1016,4 0,0
16.07.2018 04:00:00 23,4 12,7 14 7 29 16 WNW 1016,5 0,0
16.07.2018 03:00:00 23,7 12,0 3 2 19 11 NNW 1016,8 0,0
16.07.2018 02:00:00 24,1 11,8 14 8 30 16 WNW 1016,9 -
16.07.2018 01:00:00 24,5 11,5 16 9 32 17 WNW 1016,8 0,0
16.07.2018 00:00:00 24,9 10,8 14 8 33 18 W 1016,6 0,0
15.07.2018 23:00:00 25,7 9,5 17 9 37 20 WNW 1015,9 0,0
15.07.2018 22:00:00 27,1 9,0 16 8 36 19 NNW 1014,6 0,0
15.07.2018 21:00:00 28,6 8,3 17 9 41 22 NW 1014,0 0,0
15.07.2018 20:00:00 30,1 10,6 21 11 37 20 NW 1013,0 -
15.07.2018 19:00:00 31,6 11,4 13 7 32 17 NW 1012,9 0,0
15.07.2018 18:00:00 30,3 15,2 5 3 46 25 E 1013,1 0,0
15.07.2018 17:00:00 23,0 14,3 34 18 48 26 SW 1013,5 0,0
15.07.2018 16:00:00 25,1 14,9 28 15 42 23 SSW 1013,9 0,0
15.07.2018 15:00:00 23,9 14,0 23 12 37 20 SSW 1014,1 0,0
15.07.2018 14:00:00 32,2 7,8 13 7 26 14 W 1014,0 -
15.07.2018 13:00:00 31,7 9,3 12 6 29 15 WSW 1014,2 0,0
15.07.2018 12:00:00 29,2 10,3 13 7 28 15 WSW 1014,6 0,0
15.07.2018 11:00:00 27,5 12,3 10 5 29 16 WSW 1014,8 0,0
15.07.2018 10:00:00 24,5 12,8 11 6 30 16 W 1015,0 0,0
15.07.2018 09:00:00 21,6 12,5 19 10 33 18 WSW 1015,3 0,0
15.07.2018 08:00:00 20,6 12,1 16 8 35 19 W 1015,6 -
15.07.2018 07:00:00 20,9 11,8 14 7 28 15 W 1015,5 0,0
15.07.2018 06:00:00 21,6 11,9 19 10 33 18 W 1015,0 0,0
15.07.2018 05:00:00 23,2 12,5 12 7 23 12 W 1014,5 0,0
15.07.2018 04:00:00 23,6 12,9 10 5 23 12 W 1014,9 0,0
15.07.2018 03:00:00 24,8 14,0 8 4 16 8 W 1014,9 0,0
15.07.2018 02:00:00 23,4 15,7 4 2 7 4 NW 1015,6 -
15.07.2018 01:00:00 22,8 16,8 1 1 6 3 SW 1015,9 0,0
15.07.2018 00:00:00 22,1 16,1 7 4 18 10 E 1015,8 0,0
14.07.2018 23:00:00 22,2 16,2 12 7 20 11 E 1015,5 0,0
14.07.2018 22:00:00 22,4 16,2 17 9 23 12 E 1014,8 0,0
14.07.2018 21:00:00 24,1 14,8 14 7 21 11 E 1014,7 0,0
14.07.2018 20:00:00 24,5 14,6 8 5 18 10 ESE 1014,5 -
14.07.2018 19:00:00 25,4 14,5 8 5 16 9 ESE 1014,3 0,0
14.07.2018 18:00:00 26,2 15,0 10 5 16 8 E 1014,6 0,0
14.07.2018 17:00:00 24,7 15,1 10 5 20 11 ESE 1015,0 0,0
14.07.2018 16:00:00 25,9 16,2 11 6 20 11 E 1015,6 0,0
14.07.2018 15:00:00 25,4 16,0 12 7 20 11 E 1015,9 0,0
14.07.2018 14:00:00 26,3 15,7 8 4 16 9 E 1016,2 -
14.07.2018 13:00:00 24,6 15,5 7 4 13 7 ESE 1016,4 0,0
14.07.2018 12:00:00 24,3 16,8 8 4 16 9 S 1016,2 0,0
14.07.2018 11:00:00 26,8 13,9 6 3 9 5 S 1015,5 0,0
14.07.2018 10:00:00 25,9 12,7 6 4 11 6 W 1015,3 0,0
14.07.2018 09:00:00 24,5 11,8 4 2 11 6 WSW 1015,2 0,0
14.07.2018 08:00:00 22,6 11,0 6 3 13 7 NNW 1015,6 -
14.07.2018 07:00:00 22,1 11,8 6 4 10 6 W 1015,5 0,0
14.07.2018 06:00:00 22,3 10,8 7 4 15 8 NW 1015,1 0,0
14.07.2018 05:00:00 21,0 15,8 2 1 7 4 NW 1015,3 0,0
14.07.2018 04:00:00 20,6 16,8 1 0 6 4 SSE 1015,2 0,0
14.07.2018 03:00:00 20,6 16,8 5 3 13 7 E 1015,3 0,0
14.07.2018 02:00:00 20,9 16,9 5 3 16 9 E 1015,9 -
14.07.2018 01:00:00 21,5 16,9 6 3 13 7 E 1015,6 0,0
14.07.2018 00:00:00 22,2 16,0 9 5 16 9 E 1015,4 0,0
13.07.2018 23:00:00 22,2 15,1 12 6 17 9 E 1015,0 0,0
13.07.2018 22:00:00 22,7 14,8 9 5 16 9 E 1014,2 0,0
13.07.2018 21:00:00 23,2 13,7 7 4 11 6 SE 1014,0 0,0
13.07.2018 20:00:00 24,8 13,7 5 3 13 7 ESE 1013,6 -
13.07.2018 19:00:00 25,1 14,6 10 5 22 12 E 1013,8 0,0
13.07.2018 18:00:00 24,8 14,3 11 6 - - E 1014,1 -
13.07.2018 17:00:00 23,8 13,9 12 7 22 12 E 1014,2 0,0
13.07.2018 16:00:00 24,4 14,8 7 4 23 12 SE 1014,3 0,0
13.07.2018 15:00:00 24,6 14,4 8 4 19 10 ESE 1014,5 0,0
13.07.2018 14:00:00 23,4 15,2 13 7 25 13 S 1014,9 -
13.07.2018 13:00:00 23,5 15,0 12 6 23 12 S 1014,9 0,0
13.07.2018 12:00:00 24,9 14,7 9 5 - - SSE 1014,3 -
13.07.2018 11:00:00 23,8 14,2 7 4 18 10 SSE 1013,6 0,0
13.07.2018 10:00:00 25,0 14,5 7 4 19 10 W 1013,0 0,0
13.07.2018 09:00:00 22,2 13,6 11 6 24 13 W 1012,7 0,0
13.07.2018 08:00:00 21,1 13,3 9 5 21 11 W 1013,2 -
13.07.2018 07:00:00 21,6 13,5 7 4 17 9 W 1012,9 0,0
13.07.2018 06:00:00 21,6 13,8 9 5 18 10 W 1012,5 0,0
13.07.2018 05:00:00 23,4 11,5 6 3 14 8 NW 1012,3 0,0
13.07.2018 04:00:00 22,5 15,4 5 3 8 4 N 1012,7 0,0
13.07.2018 03:00:00 22,4 16,2 5 3 14 8 ESE 1012,7 0,0
13.07.2018 02:00:00 23,5 15,3 1 1 11 6 E 1012,7 -
13.07.2018 01:00:00 22,5 16,5 1 0 14 8 W 1012,7 0,0
13.07.2018 00:00:00 22,6 16,2 11 6 27 15 E 1012,8 0,0
12.07.2018 23:00:00 23,4 15,7 18 10 29 16 E 1012,1 0,0
12.07.2018 22:00:00 23,4 16,0 21 11 29 16 E 1011,7 0,0
12.07.2018 21:00:00 23,5 16,8 16 8 23 12 E 1011,2 0,0
12.07.2018 20:00:00 23,7 17,4 14 8 21 11 E 1010,8 -
12.07.2018 19:00:00 23,7 17,0 16 8 22 12 E 1010,7 0,0
12.07.2018 18:00:00 24,0 17,5 14 8 25 13 E 1010,9 0,0
12.07.2018 17:00:00 22,5 16,3 16 9 25 14 E 1011,2 0,0
12.07.2018 16:00:00 22,5 17,6 10 6 22 12 ESE 1011,6 0,0
12.07.2018 15:00:00 26,5 17,8 5 3 17 9 E 1011,8 0,0
12.07.2018 14:00:00 25,3 17,5 6 3 16 9 ESE 1012,2 -
12.07.2018 13:00:00 23,3 17,3 10 5 23 13 SSE 1012,9 0,0
12.07.2018 12:00:00 23,9 15,9 8 4 21 12 SE 1012,6 0,0
12.07.2018 11:00:00 22,4 16,0 11 6 33 18 E 1011,9 0,0
12.07.2018 10:00:00 28,2 13,7 7 4 26 14 W 1010,7 0,0
12.07.2018 09:00:00 25,7 12,5 13 7 29 16 W 1010,4 0,0
12.07.2018 08:00:00 24,9 11,8 13 7 29 15 W 1010,4 -
12.07.2018 07:00:00 24,8 10,3 13 7 29 16 W 1010,2 0,0
12.07.2018 06:00:00 25,1 9,0 11 6 32 17 W 1009,9 0,0
12.07.2018 05:00:00 25,8 7,4 10 6 29 16 W 1009,8 0,0
12.07.2018 04:00:00 26,6 4,4 11 6 24 13 W 1009,9 0,0
12.07.2018 03:00:00 27,5 3,3 11 6 24 13 W 1010,3 0,0
12.07.2018 02:00:00 28,9 3,7 11 6 23 13 WNW 1010,5 -
12.07.2018 01:00:00 29,6 5,7 9 5 21 12 W 1010,5 0,0
12.07.2018 00:00:00 30,1 7,9 10 5 20 11 WNW 1010,4 0,0
11.07.2018 23:00:00 24,0 15,8 0 0 9 5 W 1010,1 0,0
11.07.2018 22:00:00 24,8 15,1 0 0 15 8 WSW 1009,5 0,0
11.07.2018 21:00:00 24,6 13,8 10 5 26 14 E 1009,0 0,0
11.07.2018 20:00:00 26,7 14,5 19 10 28 15 E 1008,8 -
11.07.2018 19:00:00 25,0 13,5 15 8 24 13 E 1009,4 0,0
11.07.2018 18:00:00 25,3 14,1 17 9 25 14 ESE 1009,6 0,0
11.07.2018 17:00:00 25,1 13,6 16 8 25 14 ESE 1010,0 0,0
11.07.2018 16:00:00 25,1 14,3 18 10 29 16 E 1010,5 0,0
11.07.2018 15:00:00 26,0 15,1 19 10 26 14 E 1010,7 0,0
11.07.2018 14:00:00 25,7 15,4 14 8 27 14 E 1011,4 -
11.07.2018 13:00:00 24,8 15,1 15 8 24 13 E 1011,4 0,0
11.07.2018 12:00:00 23,4 15,2 16 9 25 14 E 1011,2 0,0
11.07.2018 11:00:00 23,8 14,2 16 9 22 12 E 1010,9 0,0
11.07.2018 10:00:00 28,8 10,5 13 7 27 15 W 1010,7 0,0
11.07.2018 09:00:00 26,5 10,2 9 5 31 17 W 1010,7 0,0
11.07.2018 08:00:00 25,4 9,7 13 7 34 18 W 1011,1 -
11.07.2018 07:00:00 25,2 9,5 15 8 33 18 W 1011,2 0,0
11.07.2018 06:00:00 25,5 8,9 14 7 29 16 W 1011,3 0,0
11.07.2018 05:00:00 26,4 8,4 14 8 33 18 W 1011,2 0,0
11.07.2018 04:00:00 27,7 7,6 14 7 27 15 W 1011,5 0,0
11.07.2018 03:00:00 28,8 8,0 10 6 18 10 WSW 1011,7 0,0
11.07.2018 02:00:00 29,1 9,3 8 4 19 10 W 1012,0 -
11.07.2018 01:00:00 29,8 9,9 9 5 24 13 W 1012,2 0,0
11.07.2018 00:00:00 28,9 13,6 6 3 12 7 WSW 1012,3 0,0
10.07.2018 23:00:00 25,6 17,0 0 0 8 4 WNW 1012,2 0,0
10.07.2018 22:00:00 25,1 16,8 5 3 11 6 SSW 1011,8 0,0
10.07.2018 21:00:00 26,0 16,5 9 5 19 10 E 1011,8 0,0
10.07.2018 20:00:00 26,5 16,4 16 8 25 14 E 1011,6 -
10.07.2018 19:00:00 26,3 17,1 16 9 29 15 E 1011,9 0,0
10.07.2018 18:00:00 25,6 18,0 20 11 35 19 E 1012,4 0,0

tt = temperature
td = dewpoint
ff = wind speed
fx = gusts
dd = wind direction
ppp = reduced air pressure
rr = precipitation

Next stations